sensor_id;sensor_type;location;lat;lon;timestamp;temperature;humidity
73112;HTU21D;61301;51.956;5.876;2023-04-06T00:01:40;11.34;38.53
73112;HTU21D;61301;51.956;5.876;2023-04-06T00:04:06;11.37;38.82
73112;HTU21D;61301;51.956;5.876;2023-04-06T00:06:33;11.39;38.84
73112;HTU21D;61301;51.956;5.876;2023-04-06T00:09:00;11.43;39.04
73112;HTU21D;61301;51.956;5.876;2023-04-06T00:11:26;11.48;39.11
73112;HTU21D;61301;51.956;5.876;2023-04-06T00:13:52;11.44;39.06
73112;HTU21D;61301;51.956;5.876;2023-04-06T00:16:19;11.39;39.17
73112;HTU21D;61301;51.956;5.876;2023-04-06T00:18:45;11.29;38.96
73112;HTU21D;61301;51.956;5.876;2023-04-06T00:21:12;11.27;38.98
73112;HTU21D;61301;51.956;5.876;2023-04-06T00:23:39;11.24;39.25
73112;HTU21D;61301;51.956;5.876;2023-04-06T00:26:05;11.33;39.33
73112;HTU21D;61301;51.956;5.876;2023-04-06T00:28:31;11.30;38.91
73112;HTU21D;61301;51.956;5.876;2023-04-06T00:30:57;11.32;39.04
73112;HTU21D;61301;51.956;5.876;2023-04-06T00:33:23;11.25;38.69
73112;HTU21D;61301;51.956;5.876;2023-04-06T00:35:49;11.17;38.62
73112;HTU21D;61301;51.956;5.876;2023-04-06T00:38:16;11.12;38.85
73112;HTU21D;61301;51.956;5.876;2023-04-06T00:40:43;11.07;38.92
73112;HTU21D;61301;51.956;5.876;2023-04-06T00:43:11;11.03;39.10
73112;HTU21D;61301;51.956;5.876;2023-04-06T00:45:38;11.09;39.39
73112;HTU21D;61301;51.956;5.876;2023-04-06T00:48:06;11.11;39.45
73112;HTU21D;61301;51.956;5.876;2023-04-06T00:50:32;11.12;39.36
73112;HTU21D;61301;51.956;5.876;2023-04-06T00:52:59;11.09;39.30
73112;HTU21D;61301;51.956;5.876;2023-04-06T00:55:29;10.99;39.23
73112;HTU21D;61301;51.956;5.876;2023-04-06T00:57:58;10.94;39.47
73112;HTU21D;61301;51.956;5.876;2023-04-06T01:00:25;10.86;39.42
73112;HTU21D;61301;51.956;5.876;2023-04-06T01:02:56;10.80;39.36
73112;HTU21D;61301;51.956;5.876;2023-04-06T01:05:29;10.79;40.00
73112;HTU21D;61301;51.956;5.876;2023-04-06T01:07:57;10.82;40.08
73112;HTU21D;61301;51.956;5.876;2023-04-06T01:10:28;10.75;39.76
73112;HTU21D;61301;51.956;5.876;2023-04-06T01:13:11;10.71;39.86
73112;HTU21D;61301;51.956;5.876;2023-04-06T01:15:51;10.67;40.06
73112;HTU21D;61301;51.956;5.876;2023-04-06T01:18:27;10.67;40.10
73112;HTU21D;61301;51.956;5.876;2023-04-06T01:21:03;10.63;40.29
73112;HTU21D;61301;51.956;5.876;2023-04-06T01:23:29;10.59;40.26
73112;HTU21D;61301;51.956;5.876;2023-04-06T01:25:55;10.56;40.18
73112;HTU21D;61301;51.956;5.876;2023-04-06T01:28:21;10.53;40.07
73112;HTU21D;61301;51.956;5.876;2023-04-06T01:31:00;10.51;40.19
73112;HTU21D;61301;51.956;5.876;2023-04-06T01:33:53;10.48;40.36
73112;HTU21D;61301;51.956;5.876;2023-04-06T01:36:22;10.49;40.58
73112;HTU21D;61301;51.956;5.876;2023-04-06T01:38:57;10.50;40.44
73112;HTU21D;61301;51.956;5.876;2023-04-06T01:41:30;10.52;40.91
73112;HTU21D;61301;51.956;5.876;2023-04-06T01:43:56;10.50;40.65
73112;HTU21D;61301;51.956;5.876;2023-04-06T01:46:26;10.41;40.93
73112;HTU21D;61301;51.956;5.876;2023-04-06T01:48:52;10.34;40.62
73112;HTU21D;61301;51.956;5.876;2023-04-06T01:51:39;10.31;41.20
73112;HTU21D;61301;51.956;5.876;2023-04-06T01:54:08;10.30;40.97
73112;HTU21D;61301;51.956;5.876;2023-04-06T01:56:55;10.28;40.84
73112;HTU21D;61301;51.956;5.876;2023-04-06T01:59:28;10.21;41.35
73112;HTU21D;61301;51.956;5.876;2023-04-06T02:01:55;10.20;41.54
73112;HTU21D;61301;51.956;5.876;2023-04-06T02:04:23;10.20;41.49
73112;HTU21D;61301;51.956;5.876;2023-04-06T02:06:54;10.22;41.17
73112;HTU21D;61301;51.956;5.876;2023-04-06T02:09:26;10.24;41.26
73112;HTU21D;61301;51.956;5.876;2023-04-06T02:11:52;10.30;41.39
73112;HTU21D;61301;51.956;5.876;2023-04-06T02:14:18;10.28;41.55
73112;HTU21D;61301;51.956;5.876;2023-04-06T02:16:50;10.18;41.29
73112;HTU21D;61301;51.956;5.876;2023-04-06T02:19:16;10.09;41.62
73112;HTU21D;61301;51.956;5.876;2023-04-06T02:21:43;10.09;41.84
73112;HTU21D;61301;51.956;5.876;2023-04-06T02:24:09;10.09;41.92
73112;HTU21D;61301;51.956;5.876;2023-04-06T02:26:35;10.06;41.85
73112;HTU21D;61301;51.956;5.876;2023-04-06T02:29:01;10.06;42.08
73112;HTU21D;61301;51.956;5.876;2023-04-06T02:31:28;10.05;41.99
73112;HTU21D;61301;51.956;5.876;2023-04-06T02:33:54;10.05;42.06
73112;HTU21D;61301;51.956;5.876;2023-04-06T02:36:20;10.06;42.09
73112;HTU21D;61301;51.956;5.876;2023-04-06T02:38:46;10.04;41.89
73112;HTU21D;61301;51.956;5.876;2023-04-06T02:41:12;10.03;41.82
73112;HTU21D;61301;51.956;5.876;2023-04-06T02:43:39;10.06;42.13
73112;HTU21D;61301;51.956;5.876;2023-04-06T02:46:28;10.04;42.04
73112;HTU21D;61301;51.956;5.876;2023-04-06T02:48:54;10.03;42.03
73112;HTU21D;61301;51.956;5.876;2023-04-06T02:51:20;10.07;42.32
73112;HTU21D;61301;51.956;5.876;2023-04-06T02:53:53;10.12;42.35
73112;HTU21D;61301;51.956;5.876;2023-04-06T02:56:19;10.10;42.08
73112;HTU21D;61301;51.956;5.876;2023-04-06T02:58:50;10.08;42.18
73112;HTU21D;61301;51.956;5.876;2023-04-06T03:01:16;10.07;42.30
73112;HTU21D;61301;51.956;5.876;2023-04-06T03:03:43;10.05;42.22
73112;HTU21D;61301;51.956;5.876;2023-04-06T03:06:17;10.04;42.17
73112;HTU21D;61301;51.956;5.876;2023-04-06T03:08:43;10.01;42.21
73112;HTU21D;61301;51.956;5.876;2023-04-06T03:11:10;9.98;42.43
73112;HTU21D;61301;51.956;5.876;2023-04-06T03:13:40;9.99;42.13
73112;HTU21D;61301;51.956;5.876;2023-04-06T03:16:06;10.01;42.15
73112;HTU21D;61301;51.956;5.876;2023-04-06T03:18:32;10.00;41.98
73112;HTU21D;61301;51.956;5.876;2023-04-06T03:20:58;9.97;42.17
73112;HTU21D;61301;51.956;5.876;2023-04-06T03:23:33;9.90;41.97
73112;HTU21D;61301;51.956;5.876;2023-04-06T03:26:02;9.85;41.90
73112;HTU21D;61301;51.956;5.876;2023-04-06T03:28:29;9.83;41.96
73112;HTU21D;61301;51.956;5.876;2023-04-06T03:31:04;9.81;41.84
73112;HTU21D;61301;51.956;5.876;2023-04-06T03:33:57;9.75;41.87
73112;HTU21D;61301;51.956;5.876;2023-04-06T03:36:27;9.67;42.25
73112;HTU21D;61301;51.956;5.876;2023-04-06T03:38:56;9.60;42.19
73112;HTU21D;61301;51.956;5.876;2023-04-06T03:41:22;9.50;42.37
73112;HTU21D;61301;51.956;5.876;2023-04-06T03:43:57;9.45;42.23
73112;HTU21D;61301;51.956;5.876;2023-04-06T03:46:23;9.42;42.42
73112;HTU21D;61301;51.956;5.876;2023-04-06T03:48:53;9.40;42.56
73112;HTU21D;61301;51.956;5.876;2023-04-06T03:51:21;9.36;42.93
73112;HTU21D;61301;51.956;5.876;2023-04-06T03:53:47;9.30;42.76
73112;HTU21D;61301;51.956;5.876;2023-04-06T03:56:13;9.24;43.15
73112;HTU21D;61301;51.956;5.876;2023-04-06T03:58:39;9.20;43.10
73112;HTU21D;61301;51.956;5.876;2023-04-06T04:01:06;9.17;42.97
73112;HTU21D;61301;51.956;5.876;2023-04-06T04:03:34;9.15;42.97
73112;HTU21D;61301;51.956;5.876;2023-04-06T04:06:00;9.11;43.27
73112;HTU21D;61301;51.956;5.876;2023-04-06T04:08:26;9.11;43.27
73112;HTU21D;61301;51.956;5.876;2023-04-06T04:10:52;9.14;43.40
73112;HTU21D;61301;51.956;5.876;2023-04-06T04:13:19;9.14;43.22
73112;HTU21D;61301;51.956;5.876;2023-04-06T04:15:48;9.09;43.40
73112;HTU21D;61301;51.956;5.876;2023-04-06T04:18:15;9.04;44.15
73112;HTU21D;61301;51.956;5.876;2023-04-06T04:20:41;9.01;44.59
73112;HTU21D;61301;51.956;5.876;2023-04-06T04:23:09;8.98;44.54
73112;HTU21D;61301;51.956;5.876;2023-04-06T04:25:35;8.96;44.86
73112;HTU21D;61301;51.956;5.876;2023-04-06T04:28:02;8.95;45.45
73112;HTU21D;61301;51.956;5.876;2023-04-06T04:30:29;8.94;44.79
73112;HTU21D;61301;51.956;5.876;2023-04-06T04:32:55;8.94;44.84
73112;HTU21D;61301;51.956;5.876;2023-04-06T04:35:22;8.97;45.02
73112;HTU21D;61301;51.956;5.876;2023-04-06T04:37:49;9.03;44.66
73112;HTU21D;61301;51.956;5.876;2023-04-06T04:40:16;9.09;44.36
73112;HTU21D;61301;51.956;5.876;2023-04-06T04:42:51;9.05;45.02
73112;HTU21D;61301;51.956;5.876;2023-04-06T04:45:28;9.02;45.78
73112;HTU21D;61301;51.956;5.876;2023-04-06T04:47:55;9.01;45.24
73112;HTU21D;61301;51.956;5.876;2023-04-06T04:50:24;9.00;45.37
73112;HTU21D;61301;51.956;5.876;2023-04-06T04:52:54;8.96;45.61
73112;HTU21D;61301;51.956;5.876;2023-04-06T04:55:23;8.96;45.36
73112;HTU21D;61301;51.956;5.876;2023-04-06T04:57:53;8.98;45.70
73112;HTU21D;61301;51.956;5.876;2023-04-06T05:00:25;8.93;45.84
73112;HTU21D;61301;51.956;5.876;2023-04-06T05:02:55;8.93;45.61
73112;HTU21D;61301;51.956;5.876;2023-04-06T05:05:25;8.91;45.64
73112;HTU21D;61301;51.956;5.876;2023-04-06T05:07:52;8.91;45.70
73112;HTU21D;61301;51.956;5.876;2023-04-06T05:10:30;8.88;45.77
73112;HTU21D;61301;51.956;5.876;2023-04-06T05:13:00;8.89;45.67
73112;HTU21D;61301;51.956;5.876;2023-04-06T05:15:27;8.97;45.39
73112;HTU21D;61301;51.956;5.876;2023-04-06T05:17:59;8.95;45.70
73112;HTU21D;61301;51.956;5.876;2023-04-06T05:20:31;9.02;45.31
73112;HTU21D;61301;51.956;5.876;2023-04-06T05:23:01;9.07;45.16
73112;HTU21D;61301;51.956;5.876;2023-04-06T05:25:28;9.09;45.22
73112;HTU21D;61301;51.956;5.876;2023-04-06T05:27:58;9.11;45.67
73112;HTU21D;61301;51.956;5.876;2023-04-06T05:30:29;9.08;45.86
73112;HTU21D;61301;51.956;5.876;2023-04-06T05:32:55;9.05;45.92
73112;HTU21D;61301;51.956;5.876;2023-04-06T05:35:24;8.98;46.25
73112;HTU21D;61301;51.956;5.876;2023-04-06T05:37:54;9.04;46.11
73112;HTU21D;61301;51.956;5.876;2023-04-06T05:40:24;9.04;45.94
73112;HTU21D;61301;51.956;5.876;2023-04-06T05:42:50;9.10;45.96
73112;HTU21D;61301;51.956;5.876;2023-04-06T05:45:17;9.15;45.73
73112;HTU21D;61301;51.956;5.876;2023-04-06T05:47:49;9.22;45.83
73112;HTU21D;61301;51.956;5.876;2023-04-06T05:50:28;9.24;45.72
73112;HTU21D;61301;51.956;5.876;2023-04-06T05:52:55;9.23;46.02
73112;HTU21D;61301;51.956;5.876;2023-04-06T05:55:24;9.20;45.90
73112;HTU21D;61301;51.956;5.876;2023-04-06T05:58:00;9.27;45.86
73112;HTU21D;61301;51.956;5.876;2023-04-06T06:00:26;9.21;45.98
73112;HTU21D;61301;51.956;5.876;2023-04-06T06:03:01;9.25;46.06
73112;HTU21D;61301;51.956;5.876;2023-04-06T06:05:30;9.29;45.72
73112;HTU21D;61301;51.956;5.876;2023-04-06T06:08:02;9.38;45.51
73112;HTU21D;61301;51.956;5.876;2023-04-06T06:10:29;9.44;45.35
73112;HTU21D;61301;51.956;5.876;2023-04-06T06:12:55;9.50;45.17
73112;HTU21D;61301;51.956;5.876;2023-04-06T06:15:22;9.50;45.30
73112;HTU21D;61301;51.956;5.876;2023-04-06T06:17:48;9.63;45.01
73112;HTU21D;61301;51.956;5.876;2023-04-06T06:20:14;9.65;44.83
73112;HTU21D;61301;51.956;5.876;2023-04-06T06:22:42;9.71;45.19
73112;HTU21D;61301;51.956;5.876;2023-04-06T06:25:14;9.75;44.70
73112;HTU21D;61301;51.956;5.876;2023-04-06T06:27:40;9.82;44.86
73112;HTU21D;61301;51.956;5.876;2023-04-06T06:30:08;9.80;44.85
73112;HTU21D;61301;51.956;5.876;2023-04-06T06:32:37;9.93;44.58
73112;HTU21D;61301;51.956;5.876;2023-04-06T06:35:04;10.11;44.53
73112;HTU21D;61301;51.956;5.876;2023-04-06T06:37:30;10.25;44.25
73112;HTU21D;61301;51.956;5.876;2023-04-06T06:39:56;10.33;44.02
73112;HTU21D;61301;51.956;5.876;2023-04-06T06:42:22;10.41;43.63
73112;HTU21D;61301;51.956;5.876;2023-04-06T06:45:08;10.36;43.64
73112;HTU21D;61301;51.956;5.876;2023-04-06T06:47:35;10.52;43.64
73112;HTU21D;61301;51.956;5.876;2023-04-06T06:50:01;10.60;43.42
73112;HTU21D;61301;51.956;5.876;2023-04-06T06:52:29;10.67;43.33
73112;HTU21D;61301;51.956;5.876;2023-04-06T06:54:55;10.77;42.95
73112;HTU21D;61301;51.956;5.876;2023-04-06T06:57:22;10.84;43.02
73112;HTU21D;61301;51.956;5.876;2023-04-06T06:59:49;10.86;42.81
73112;HTU21D;61301;51.956;5.876;2023-04-06T07:02:18;10.84;42.45
73112;HTU21D;61301;51.956;5.876;2023-04-06T07:04:47;10.83;42.63
73112;HTU21D;61301;51.956;5.876;2023-04-06T07:07:13;10.88;42.84
73112;HTU21D;61301;51.956;5.876;2023-04-06T07:09:39;10.96;42.74
73112;HTU21D;61301;51.956;5.876;2023-04-06T07:12:06;11.02;42.64
73112;HTU21D;61301;51.956;5.876;2023-04-06T07:14:32;11.09;42.71
73112;HTU21D;61301;51.956;5.876;2023-04-06T07:16:58;11.23;42.45
73112;HTU21D;61301;51.956;5.876;2023-04-06T07:19:24;11.15;42.10
73112;HTU21D;61301;51.956;5.876;2023-04-06T07:21:50;11.14;41.92
73112;HTU21D;61301;51.956;5.876;2023-04-06T07:24:16;11.25;41.89
73112;HTU21D;61301;51.956;5.876;2023-04-06T07:26:42;11.32;42.32
73112;HTU21D;61301;51.956;5.876;2023-04-06T07:29:08;11.46;41.87
73112;HTU21D;61301;51.956;5.876;2023-04-06T07:31:35;11.49;40.99
73112;HTU21D;61301;51.956;5.876;2023-04-06T07:34:02;11.44;41.13
73112;HTU21D;61301;51.956;5.876;2023-04-06T07:36:28;11.51;40.55
73112;HTU21D;61301;51.956;5.876;2023-04-06T07:38:54;11.46;40.59
73112;HTU21D;61301;51.956;5.876;2023-04-06T07:41:22;11.49;40.58
73112;HTU21D;61301;51.956;5.876;2023-04-06T07:43:48;11.53;41.34
73112;HTU21D;61301;51.956;5.876;2023-04-06T07:46:14;11.53;41.36
73112;HTU21D;61301;51.956;5.876;2023-04-06T07:48:40;11.56;41.29
73112;HTU21D;61301;51.956;5.876;2023-04-06T07:51:06;11.62;41.65
73112;HTU21D;61301;51.956;5.876;2023-04-06T07:53:36;11.73;41.84
73112;HTU21D;61301;51.956;5.876;2023-04-06T07:56:02;11.87;42.32
73112;HTU21D;61301;51.956;5.876;2023-04-06T07:58:28;11.88;41.61
73112;HTU21D;61301;51.956;5.876;2023-04-06T08:00:54;11.88;41.05
73112;HTU21D;61301;51.956;5.876;2023-04-06T08:03:21;11.92;40.88
73112;HTU21D;61301;51.956;5.876;2023-04-06T08:05:51;11.99;40.28
73112;HTU21D;61301;51.956;5.876;2023-04-06T08:08:18;11.96;40.01
73112;HTU21D;61301;51.956;5.876;2023-04-06T08:10:45;11.99;39.98
73112;HTU21D;61301;51.956;5.876;2023-04-06T08:13:11;12.07;39.59
73112;HTU21D;61301;51.956;5.876;2023-04-06T08:15:37;12.16;39.91
73112;HTU21D;61301;51.956;5.876;2023-04-06T08:18:03;12.37;40.40
73112;HTU21D;61301;51.956;5.876;2023-04-06T08:20:29;12.34;39.76
73112;HTU21D;61301;51.956;5.876;2023-04-06T08:22:55;12.26;39.53
73112;HTU21D;61301;51.956;5.876;2023-04-06T08:25:21;12.33;39.72
73112;HTU21D;61301;51.956;5.876;2023-04-06T08:27:47;12.50;39.39
73112;HTU21D;61301;51.956;5.876;2023-04-06T08:30:13;12.55;39.66
73112;HTU21D;61301;51.956;5.876;2023-04-06T08:32:41;12.64;39.79
73112;HTU21D;61301;51.956;5.876;2023-04-06T08:35:08;12.63;39.33
73112;HTU21D;61301;51.956;5.876;2023-04-06T08:37:34;12.59;39.27
73112;HTU21D;61301;51.956;5.876;2023-04-06T08:40:00;12.55;39.98
73112;HTU21D;61301;51.956;5.876;2023-04-06T08:42:28;12.53;39.99
73112;HTU21D;61301;51.956;5.876;2023-04-06T08:44:57;12.60;40.34
73112;HTU21D;61301;51.956;5.876;2023-04-06T08:47:23;12.56;40.82
73112;HTU21D;61301;51.956;5.876;2023-04-06T08:49:50;12.63;40.87
73112;HTU21D;61301;51.956;5.876;2023-04-06T08:52:18;12.63;41.00
73112;HTU21D;61301;51.956;5.876;2023-04-06T08:54:44;12.69;41.29
73112;HTU21D;61301;51.956;5.876;2023-04-06T08:57:11;12.80;41.36
73112;HTU21D;61301;51.956;5.876;2023-04-06T08:59:37;12.89;41.77
73112;HTU21D;61301;51.956;5.876;2023-04-06T09:02:04;13.00;40.64
73112;HTU21D;61301;51.956;5.876;2023-04-06T09:04:33;13.20;40.55
73112;HTU21D;61301;51.956;5.876;2023-04-06T09:07:00;13.37;40.32
73112;HTU21D;61301;51.956;5.876;2023-04-06T09:09:26;13.49;40.23
73112;HTU21D;61301;51.956;5.876;2023-04-06T09:11:52;13.73;39.82
73112;HTU21D;61301;51.956;5.876;2023-04-06T09:14:37;13.71;38.75
73112;HTU21D;61301;51.956;5.876;2023-04-06T09:17:05;13.69;39.62
73112;HTU21D;61301;51.956;5.876;2023-04-06T09:19:31;13.76;39.56
73112;HTU21D;61301;51.956;5.876;2023-04-06T09:22:06;13.89;39.11
73112;HTU21D;61301;51.956;5.876;2023-04-06T09:24:46;14.07;39.36
73112;HTU21D;61301;51.956;5.876;2023-04-06T09:27:13;14.11;38.59
73112;HTU21D;61301;51.956;5.876;2023-04-06T09:29:40;14.22;38.08
73112;HTU21D;61301;51.956;5.876;2023-04-06T09:32:08;14.24;38.53
73112;HTU21D;61301;51.956;5.876;2023-04-06T09:34:38;14.47;37.56
73112;HTU21D;61301;51.956;5.876;2023-04-06T09:37:17;14.55;37.13
73112;HTU21D;61301;51.956;5.876;2023-04-06T09:39:44;14.64;37.57
73112;HTU21D;61301;51.956;5.876;2023-04-06T09:42:26;14.73;37.05
73112;HTU21D;61301;51.956;5.876;2023-04-06T09:44:52;14.53;37.64
73112;HTU21D;61301;51.956;5.876;2023-04-06T09:47:19;14.67;37.34
73112;HTU21D;61301;51.956;5.876;2023-04-06T09:49:47;14.67;37.37
73112;HTU21D;61301;51.956;5.876;2023-04-06T09:52:15;14.49;38.02
73112;HTU21D;61301;51.956;5.876;2023-04-06T09:54:42;14.35;38.11
73112;HTU21D;61301;51.956;5.876;2023-04-06T09:57:25;14.34;38.64
73112;HTU21D;61301;51.956;5.876;2023-04-06T10:00:04;14.48;38.75
73112;HTU21D;61301;51.956;5.876;2023-04-06T10:02:48;14.45;37.95
73112;HTU21D;61301;51.956;5.876;2023-04-06T10:05:24;14.43;38.62
73112;HTU21D;61301;51.956;5.876;2023-04-06T10:07:54;14.60;38.64
73112;HTU21D;61301;51.956;5.876;2023-04-06T10:10:21;14.66;39.03
73112;HTU21D;61301;51.956;5.876;2023-04-06T10:12:48;14.40;38.11
73112;HTU21D;61301;51.956;5.876;2023-04-06T10:15:14;14.27;38.72
73112;HTU21D;61301;51.956;5.876;2023-04-06T10:17:40;14.23;39.11
73112;HTU21D;61301;51.956;5.876;2023-04-06T10:23:19;14.00;40.30
73112;HTU21D;61301;51.956;5.876;2023-04-06T10:26:00;13.96;40.12
73112;HTU21D;61301;51.956;5.876;2023-04-06T10:28:31;14.00;40.04
73112;HTU21D;61301;51.956;5.876;2023-04-06T10:30:59;13.85;40.49
73112;HTU21D;61301;51.956;5.876;2023-04-06T10:33:26;14.07;40.59
73112;HTU21D;61301;51.956;5.876;2023-04-06T10:35:52;13.99;40.42
73112;HTU21D;61301;51.956;5.876;2023-04-06T10:38:19;14.00;40.08
73112;HTU21D;61301;51.956;5.876;2023-04-06T10:40:47;13.99;40.60
73112;HTU21D;61301;51.956;5.876;2023-04-06T10:43:19;14.15;41.16
73112;HTU21D;61301;51.956;5.876;2023-04-06T10:45:54;14.44;40.18
73112;HTU21D;61301;51.956;5.876;2023-04-06T10:48:21;14.55;40.29
73112;HTU21D;61301;51.956;5.876;2023-04-06T10:50:49;14.58;40.44
73112;HTU21D;61301;51.956;5.876;2023-04-06T10:53:25;14.47;40.83
73112;HTU21D;61301;51.956;5.876;2023-04-06T10:55:54;14.33;41.15
73112;HTU21D;61301;51.956;5.876;2023-04-06T10:58:24;14.39;41.69
73112;HTU21D;61301;51.956;5.876;2023-04-06T11:00:51;14.35;41.41
73112;HTU21D;61301;51.956;5.876;2023-04-06T11:03:17;14.35;41.87
73112;HTU21D;61301;51.956;5.876;2023-04-06T11:05:47;14.18;42.16
73112;HTU21D;61301;51.956;5.876;2023-04-06T11:08:33;14.37;42.27
73112;HTU21D;61301;51.956;5.876;2023-04-06T11:11:07;14.27;43.08
73112;HTU21D;61301;51.956;5.876;2023-04-06T11:13:38;14.33;42.78
73112;HTU21D;61301;51.956;5.876;2023-04-06T11:16:04;14.29;43.22
73112;HTU21D;61301;51.956;5.876;2023-04-06T11:18:31;14.55;42.63
73112;HTU21D;61301;51.956;5.876;2023-04-06T11:20:57;14.58;42.34
73112;HTU21D;61301;51.956;5.876;2023-04-06T11:23:24;14.37;43.31
73112;HTU21D;61301;51.956;5.876;2023-04-06T11:25:53;14.33;43.45
73112;HTU21D;61301;51.956;5.876;2023-04-06T11:28:20;14.44;44.42
73112;HTU21D;61301;51.956;5.876;2023-04-06T11:30:46;14.42;44.21
73112;HTU21D;61301;51.956;5.876;2023-04-06T11:33:20;14.37;44.42
73112;HTU21D;61301;51.956;5.876;2023-04-06T11:35:47;14.22;44.83
73112;HTU21D;61301;51.956;5.876;2023-04-06T11:38:13;14.20;45.17
73112;HTU21D;61301;51.956;5.876;2023-04-06T11:40:39;14.06;47.73
73112;HTU21D;61301;51.956;5.876;2023-04-06T11:43:05;13.78;47.75
73112;HTU21D;61301;51.956;5.876;2023-04-06T11:45:42;14.01;48.08
73112;HTU21D;61301;51.956;5.876;2023-04-06T11:48:18;13.98;48.97
73112;HTU21D;61301;51.956;5.876;2023-04-06T11:50:46;13.77;50.59
73112;HTU21D;61301;51.956;5.876;2023-04-06T11:53:13;13.59;50.53
73112;HTU21D;61301;51.956;5.876;2023-04-06T11:55:39;13.39;51.40
73112;HTU21D;61301;51.956;5.876;2023-04-06T11:58:06;13.18;51.72
73112;HTU21D;61301;51.956;5.876;2023-04-06T12:00:32;13.16;52.84
73112;HTU21D;61301;51.956;5.876;2023-04-06T12:03:00;13.36;53.27
73112;HTU21D;61301;51.956;5.876;2023-04-06T12:05:26;13.37;53.17
73112;HTU21D;61301;51.956;5.876;2023-04-06T12:07:52;13.44;53.13
73112;HTU21D;61301;51.956;5.876;2023-04-06T12:10:18;13.48;52.57
73112;HTU21D;61301;51.956;5.876;2023-04-06T12:12:44;13.41;52.73
73112;HTU21D;61301;51.956;5.876;2023-04-06T12:15:11;13.11;53.56
73112;HTU21D;61301;51.956;5.876;2023-04-06T12:17:37;12.86;54.71
73112;HTU21D;61301;51.956;5.876;2023-04-06T12:20:03;12.63;56.52
73112;HTU21D;61301;51.956;5.876;2023-04-06T12:22:29;12.53;55.49
73112;HTU21D;61301;51.956;5.876;2023-04-06T12:24:56;12.66;55.49
73112;HTU21D;61301;51.956;5.876;2023-04-06T12:27:22;12.73;55.38
73112;HTU21D;61301;51.956;5.876;2023-04-06T12:29:48;12.63;55.67
73112;HTU21D;61301;51.956;5.876;2023-04-06T12:32:14;12.66;56.26
73112;HTU21D;61301;51.956;5.876;2023-04-06T12:34:40;12.67;56.58
73112;HTU21D;61301;51.956;5.876;2023-04-06T12:37:06;12.66;56.29
73112;HTU21D;61301;51.956;5.876;2023-04-06T12:39:32;12.72;56.34
73112;HTU21D;61301;51.956;5.876;2023-04-06T12:41:58;12.65;56.30
73112;HTU21D;61301;51.956;5.876;2023-04-06T12:44:24;12.71;56.45
73112;HTU21D;61301;51.956;5.876;2023-04-06T12:46:50;12.71;57.13
73112;HTU21D;61301;51.956;5.876;2023-04-06T12:49:16;12.69;57.84
73112;HTU21D;61301;51.956;5.876;2023-04-06T12:51:45;12.65;58.75
73112;HTU21D;61301;51.956;5.876;2023-04-06T12:54:11;12.73;58.23
73112;HTU21D;61301;51.956;5.876;2023-04-06T12:56:37;12.70;57.74
73112;HTU21D;61301;51.956;5.876;2023-04-06T12:59:03;12.42;58.18
73112;HTU21D;61301;51.956;5.876;2023-04-06T13:01:29;12.52;57.93
73112;HTU21D;61301;51.956;5.876;2023-04-06T13:03:56;12.43;57.66
73112;HTU21D;61301;51.956;5.876;2023-04-06T13:06:23;12.42;58.56
73112;HTU21D;61301;51.956;5.876;2023-04-06T13:08:53;12.50;59.05
73112;HTU21D;61301;51.956;5.876;2023-04-06T13:11:19;12.55;59.53
73112;HTU21D;61301;51.956;5.876;2023-04-06T13:13:47;12.50;59.25
73112;HTU21D;61301;51.956;5.876;2023-04-06T13:16:13;12.57;59.14
73112;HTU21D;61301;51.956;5.876;2023-04-06T13:18:39;12.56;59.49
73112;HTU21D;61301;51.956;5.876;2023-04-06T13:21:06;12.52;59.30
73112;HTU21D;61301;51.956;5.876;2023-04-06T13:23:33;12.31;59.25
73112;HTU21D;61301;51.956;5.876;2023-04-06T13:26:05;12.28;59.83
73112;HTU21D;61301;51.956;5.876;2023-04-06T13:28:32;12.28;60.01
73112;HTU21D;61301;51.956;5.876;2023-04-06T13:30:59;12.18;59.72
73112;HTU21D;61301;51.956;5.876;2023-04-06T13:33:26;12.16;60.19
73112;HTU21D;61301;51.956;5.876;2023-04-06T13:35:53;12.14;60.65
73112;HTU21D;61301;51.956;5.876;2023-04-06T13:38:19;12.00;61.06
73112;HTU21D;61301;51.956;5.876;2023-04-06T13:40:45;12.08;61.40
73112;HTU21D;61301;51.956;5.876;2023-04-06T13:43:11;11.99;61.63
73112;HTU21D;61301;51.956;5.876;2023-04-06T13:45:37;11.94;62.34
73112;HTU21D;61301;51.956;5.876;2023-04-06T13:48:04;12.02;62.02
73112;HTU21D;61301;51.956;5.876;2023-04-06T13:50:32;12.05;61.32
73112;HTU21D;61301;51.956;5.876;2023-04-06T13:52:58;12.08;62.37
73112;HTU21D;61301;51.956;5.876;2023-04-06T13:55:24;12.14;62.15
73112;HTU21D;61301;51.956;5.876;2023-04-06T13:57:51;12.04;61.65
73112;HTU21D;61301;51.956;5.876;2023-04-06T14:00:17;12.11;62.34
73112;HTU21D;61301;51.956;5.876;2023-04-06T14:02:43;12.08;62.14
73112;HTU21D;61301;51.956;5.876;2023-04-06T14:05:09;12.12;62.64
73112;HTU21D;61301;51.956;5.876;2023-04-06T14:07:37;12.15;62.82
73112;HTU21D;61301;51.956;5.876;2023-04-06T14:10:03;12.14;62.79
73112;HTU21D;61301;51.956;5.876;2023-04-06T14:12:30;12.06;63.05
73112;HTU21D;61301;51.956;5.876;2023-04-06T14:14:57;12.00;63.03
73112;HTU21D;61301;51.956;5.876;2023-04-06T14:17:23;12.08;63.24
73112;HTU21D;61301;51.956;5.876;2023-04-06T14:19:49;12.07;63.49
73112;HTU21D;61301;51.956;5.876;2023-04-06T14:22:15;12.18;63.19
73112;HTU21D;61301;51.956;5.876;2023-04-06T14:24:41;12.12;63.31
73112;HTU21D;61301;51.956;5.876;2023-04-06T14:27:07;12.04;63.03
73112;HTU21D;61301;51.956;5.876;2023-04-06T14:29:34;11.98;63.27
73112;HTU21D;61301;51.956;5.876;2023-04-06T14:32:00;12.08;63.55
73112;HTU21D;61301;51.956;5.876;2023-04-06T14:34:26;12.16;63.79
73112;HTU21D;61301;51.956;5.876;2023-04-06T14:36:53;12.14;63.51
73112;HTU21D;61301;51.956;5.876;2023-04-06T14:39:19;12.13;63.75
73112;HTU21D;61301;51.956;5.876;2023-04-06T14:41:45;12.08;63.99
73112;HTU21D;61301;51.956;5.876;2023-04-06T14:44:15;12.04;63.78
73112;HTU21D;61301;51.956;5.876;2023-04-06T14:46:41;12.03;63.83
73112;HTU21D;61301;51.956;5.876;2023-04-06T14:49:07;12.05;64.01
73112;HTU21D;61301;51.956;5.876;2023-04-06T14:51:34;12.07;63.49
73112;HTU21D;61301;51.956;5.876;2023-04-06T14:54:01;12.04;63.69
73112;HTU21D;61301;51.956;5.876;2023-04-06T14:56:29;11.99;63.92
73112;HTU21D;61301;51.956;5.876;2023-04-06T14:58:59;11.96;63.97
73112;HTU21D;61301;51.956;5.876;2023-04-06T15:01:34;12.01;64.05
73112;HTU21D;61301;51.956;5.876;2023-04-06T15:04:02;11.96;64.22
73112;HTU21D;61301;51.956;5.876;2023-04-06T15:06:28;11.99;64.21
73112;HTU21D;61301;51.956;5.876;2023-04-06T15:08:54;11.98;64.22
73112;HTU21D;61301;51.956;5.876;2023-04-06T15:11:21;11.98;64.03
73112;HTU21D;61301;51.956;5.876;2023-04-06T15:13:47;11.90;64.22
73112;HTU21D;61301;51.956;5.876;2023-04-06T15:16:13;11.96;64.40
73112;HTU21D;61301;51.956;5.876;2023-04-06T15:18:40;12.00;64.00
73112;HTU21D;61301;51.956;5.876;2023-04-06T15:21:06;11.88;64.43
73112;HTU21D;61301;51.956;5.876;2023-04-06T15:23:33;11.99;64.54
73112;HTU21D;61301;51.956;5.876;2023-04-06T15:26:00;12.02;64.39
73112;HTU21D;61301;51.956;5.876;2023-04-06T15:28:27;12.00;64.59
73112;HTU21D;61301;51.956;5.876;2023-04-06T15:30:54;12.05;64.17